Terminal Aerodrome Forecast
Issued by NWS

Home | Current Version | Previous Version | Text Only | Print | Product List | Glossary Off
Versions: 1 2 3 4 5 6 7 8 9 10 11 12 13 14

392
FTUS45 KGGW 231725
TAFSDY
TAF
KSDY 231725Z 2318/2418 12015G23KT P6SM OVC015
     FM232000 10016G24KT P6SM OVC025
     FM240300 09009KT P6SM VCSH OVC020
     FM240400 09008KT P6SM VCSH OVC015
     FM240600 05006KT 6SM -SHRA OVC008=

USA.gov is the U.S. government's official web portal to all federal, state and local government web resources and services.